Time;durP1;ratioP1;P1;durP2;ratioP2;P2;SDS_P1;SDS_P2;PMS_P1;PMS_P2;Temp;Humidity;BMP_temperature;BMP_pressure;BME280_temperature;BME280_humidity;BME280_pressure;Samples;Min_cycle;Max_cycle;Signal;HPM_P1;HPM_P2
2022/06/18 00:01:09;;;;;;;10.32;4.60;;;21.80;77.50;;;;;;5052879;28;20535;-51
2022/06/18 00:03:53;;;;;;;5.28;4.40;;;21.70;77.80;;;;;;5052458;28;20090;-52
2022/06/18 00:06:52;;;;;;;5.28;4.70;;;21.70;78.30;;;;;;5052864;28;20039;-49
2022/06/18 00:09:42;;;;;;;6.03;4.30;;;21.70;78.40;;;;;;5033717;28;20041;-49
2022/06/18 00:15:35;;;;;;;6.10;3.75;;;21.70;78.80;;;;;;5052064;28;20027;-51
2022/06/18 00:18:19;;;;;;;4.72;4.15;;;21.60;78.80;;;;;;5051778;28;20573;-53
2022/06/18 00:21:05;;;;;;;5.57;3.95;;;21.60;79.00;;;;;;5032182;28;20064;-54
2022/06/18 00:23:49;;;;;;;4.05;3.65;;;21.60;78.90;;;;;;5048782;28;20420;-50
2022/06/18 00:26:33;;;;;;;7.60;4.00;;;21.60;78.70;;;;;;5050911;28;20047;-54
2022/06/18 00:29:18;;;;;;;4.72;4.10;;;21.50;78.80;;;;;;5050685;28;20078;-51
2022/06/18 00:32:03;;;;;;;11.85;6.57;;;21.40;79.30;;;;;;5051732;28;20039;-51
2022/06/18 00:34:47;;;;;;;8.45;7.50;;;21.30;79.80;;;;;;5051938;28;20113;-50
2022/06/18 00:37:32;;;;;;;10.43;9.10;;;21.30;80.50;;;;;;5036683;28;20055;-54
2022/06/18 00:40:29;;;;;;;9.40;7.95;;;21.20;81.20;;;;;;5051836;28;20036;-49
2022/06/18 00:43:21;;;;;;;8.05;6.38;;;21.10;81.80;;;;;;5051305;28;20086;-52
2022/06/18 00:46:15;;;;;;;7.65;5.97;;;21.10;82.50;;;;;;5034883;28;20116;-52
2022/06/18 00:49:10;;;;;;;5.72;5.18;;;21.00;82.90;;;;;;5032091;28;20044;-48
2022/06/18 00:51:57;;;;;;;;;;;21.00;83.00;;;;;;5031942;28;20043;-53
2022/06/18 00:54:53;;;;;;;6.57;5.40;;;21.00;83.20;;;;;;5050592;28;19959;-50
2022/06/18 00:57:51;;;;;;;5.60;4.90;;;21.00;83.10;;;;;;5051263;28;20396;-53
2022/06/18 01:00:42;;;;;;;4.90;4.40;;;21.10;83.40;;;;;;5051355;28;20389;-49
2022/06/18 01:03:31;;;;;;;5.35;4.85;;;21.00;83.50;;;;;;5051797;28;20071;-53
2022/06/18 01:06:21;;;;;;;5.65;4.47;;;21.10;83.80;;;;;;5051513;28;20040;-47
2022/06/18 01:09:13;;;;;;;4.95;4.15;;;21.10;83.90;;;;;;5051266;28;20039;-48
2022/06/18 01:11:58;;;;;;;7.22;5.28;;;21.00;84.20;;;;;;5051106;28;20084;-48
2022/06/18 01:14:44;;;;;;;8.30;6.68;;;21.00;84.50;;;;;;5051073;28;20040;-51
2022/06/18 01:17:31;;;;;;;10.75;7.88;;;21.00;84.90;;;;;;5050061;28;20036;-56
2022/06/18 01:20:15;;;;;;;7.40;6.55;;;20.90;85.00;;;;;;5051870;28;20040;-54
2022/06/18 01:23:21;;;;;;;6.93;5.85;;;20.90;85.60;;;;;;5052651;28;20063;-49
2022/06/18 01:26:06;;;;;;;6.22;5.53;;;20.90;84.90;;;;;;5050666;28;20104;-53
2022/06/18 01:28:50;;;;;;;5.93;5.18;;;20.90;84.60;;;;;;5051336;28;20079;-48
2022/06/18 01:31:35;;;;;;;5.78;4.30;;;20.90;84.50;;;;;;5051359;28;20056;-48
2022/06/18 01:34:20;;;;;;;7.00;4.20;;;20.90;84.80;;;;;;5051183;28;20064;-52
2022/06/18 01:37:06;;;;;;;5.15;4.13;;;20.80;84.90;;;;;;5050403;28;20048;-47
2022/06/18 01:39:50;;;;;;;6.30;4.43;;;20.70;84.90;;;;;;5051438;28;20392;-52
2022/06/18 01:42:42;;;;;;;5.90;4.40;;;20.60;84.40;;;;;;5052212;28;20570;-56
2022/06/18 01:45:32;;;;;;;5.47;4.97;;;20.60;84.70;;;;;;5050706;28;20039;-54
2022/06/18 01:48:19;;;;;;;6.75;6.05;;;20.50;85.30;;;;;;5031236;28;20204;-53
2022/06/18 01:51:09;;;;;;;6.82;6.15;;;20.40;87.10;;;;;;5034467;28;20040;-48
2022/06/18 01:54:00;;;;;;;7.85;6.72;;;20.40;88.20;;;;;;5051374;28;20550;-53
2022/06/18 01:56:49;;;;;;;6.65;6.00;;;20.40;88.40;;;;;;5050577;28;20028;-53
2022/06/18 01:59:39;;;;;;;6.40;5.32;;;20.40;88.50;;;;;;5050960;28;20091;-52
2022/06/18 02:02:24;;;;;;;6.18;4.93;;;20.40;88.10;;;;;;5036145;28;20055;-50
2022/06/18 02:05:10;;;;;;;5.07;4.53;;;20.30;87.50;;;;;;5035448;28;20047;-49
2022/06/18 02:07:54;;;;;;;8.50;4.80;;;20.30;87.60;;;;;;5050211;28;20029;-49
2022/06/18 02:10:45;;;;;;;6.28;4.35;;;20.30;87.40;;;;;;5049519;28;20408;-51
2022/06/18 02:13:36;;;;;;;5.32;4.30;;;20.20;87.60;;;;;;5054364;28;20404;-50
2022/06/18 02:16:25;;;;;;;5.13;4.28;;;20.30;87.60;;;;;;5034750;28;20677;-51
2022/06/18 02:19:10;;;;;;;5.15;4.65;;;20.20;87.50;;;;;;5038114;28;20535;-54
2022/06/18 02:21:56;;;;;;;11.70;9.93;;;20.30;87.40;;;;;;5054638;28;20071;-51
2022/06/18 02:24:41;;;;;;;11.85;10.60;;;20.30;86.90;;;;;;5054571;28;20423;-52
2022/06/18 02:27:26;;;;;;;;;;;20.30;86.80;;;;;;5048293;28;20083;-52
2022/06/18 02:30:15;;;;;;;7.40;6.53;;;20.20;87.20;;;;;;5054625;28;19916;-53
2022/06/18 02:33:17;;;;;;;7.15;5.28;;;20.20;87.80;;;;;;5054669;28;20028;-52
2022/06/18 02:36:18;;;;;;;6.63;4.80;;;20.10;88.10;;;;;;5046057;28;20076;-51
2022/06/18 02:39:08;;;;;;;6.13;4.85;;;20.00;88.00;;;;;;5035366;28;20032;-52
2022/06/18 02:42:23;;;;;;;4.82;4.32;;;19.90;88.20;;;;;;5054747;28;20060;-53
2022/06/18 02:45:08;;;;;;;7.25;4.95;;;19.90;87.00;;;;;;5038416;28;20044;-51
2022/06/18 02:47:57;;;;;;;9.48;5.78;;;19.80;88.20;;;;;;5054441;28;20062;-47
2022/06/18 02:50:43;;;;;;;4.97;4.57;;;19.80;86.80;;;;;;5054221;28;20388;-53
2022/06/18 02:53:29;;;;;;;7.43;4.47;;;19.70;88.50;;;;;;5054141;28;20404;-52
2022/06/18 02:56:15;;;;;;;5.80;4.25;;;19.70;89.10;;;;;;5053309;28;20067;-55
2022/06/18 02:59:00;;;;;;;6.40;4.13;;;19.70;89.90;;;;;;5054148;28;20116;-50
2022/06/18 03:01:45;;;;;;;;;;;19.70;89.60;;;;;;5040235;28;20043;-51
2022/06/18 03:04:29;;;;;;;8.73;6.90;;;19.60;89.40;;;;;;5043310;28;19916;-56
2022/06/18 03:07:13;;;;;;;6.63;5.25;;;19.70;90.00;;;;;;5057647;28;20063;-54
2022/06/18 03:13:01;;;;;;;11.25;4.18;;;19.60;90.70;;;;;;5037827;28;20566;-48
2022/06/18 03:15:47;;;;;;;4.60;3.88;;;19.70;90.40;;;;;;5053185;28;20106;-49
2022/06/18 03:18:32;;;;;;;4.07;3.58;;;19.60;90.50;;;;;;5053640;28;20040;-48
2022/06/18 03:21:37;;;;;;;6.78;4.38;;;19.60;90.70;;;;;;5053074;28;20032;-49
2022/06/18 03:24:22;;;;;;;4.30;3.70;;;19.50;89.40;;;;;;5052121;28;20530;-54
2022/06/18 03:27:07;;;;;;;;;;;19.50;90.20;;;;;;5053120;28;20083;-53
2022/06/18 03:29:52;;;;;;;5.30;3.80;;;19.50;90.00;;;;;;5053170;28;19912;-51
2022/06/18 03:32:36;;;;;;;4.85;3.80;;;19.40;88.90;;;;;;5033754;28;20494;-52
2022/06/18 03:35:20;;;;;;;5.85;4.35;;;19.40;90.00;;;;;;5054838;28;20447;-54
2022/06/18 03:38:05;;;;;;;;;;;19.40;90.20;;;;;;5035303;28;20053;-54
2022/06/18 03:40:53;;;;;;;4.95;4.10;;;19.40;90.20;;;;;;5038480;28;20015;-53
2022/06/18 03:43:37;;;;;;;5.38;3.95;;;19.40;90.40;;;;;;5054776;28;20052;-51
2022/06/18 03:46:21;;;;;;;3.83;3.45;;;19.40;89.10;;;;;;5054422;28;20075;-53
2022/06/18 03:49:06;;;;;;;4.82;3.35;;;19.40;88.90;;;;;;5054547;28;20087;-49
2022/06/18 03:51:51;;;;;;;4.57;3.45;;;19.50;88.80;;;;;;5034065;28;20040;-49
2022/06/18 03:54:35;;;;;;;4.55;3.63;;;19.60;89.10;;;;;;5034340;28;20032;-54
2022/06/18 03:57:20;;;;;;;7.05;3.80;;;19.60;89.30;;;;;;5053496;28;20059;-49
2022/06/18 04:00:09;;;;;;;5.05;4.28;;;19.60;90.00;;;;;;5052795;28;20036;-55
2022/06/18 04:02:53;;;;;;;4.70;3.83;;;19.60;90.20;;;;;;5053432;28;20094;-48
2022/06/18 04:05:39;;;;;;;5.32;3.40;;;19.60;89.80;;;;;;5034380;28;20099;-50
2022/06/18 04:08:24;;;;;;;5.55;3.45;;;19.50;90.20;;;;;;5051988;28;20052;-54
2022/06/18 04:11:09;;;;;;;;;;;19.60;89.60;;;;;;5037669;28;20078;-50
2022/06/18 04:13:54;;;;;;;5.15;3.42;;;19.70;89.40;;;;;;5051873;28;19970;-50
2022/06/18 04:16:39;;;;;;;4.93;3.50;;;19.70;89.50;;;;;;5051412;28;20139;-55
2022/06/18 04:19:23;;;;;;;;;;;19.80;89.80;;;;;;5052937;28;20396;-51
2022/06/18 04:22:08;;;;;;;6.25;3.58;;;19.80;90.10;;;;;;5051851;28;19915;-53
2022/06/18 04:24:52;;;;;;;3.63;3.33;;;19.90;89.70;;;;;;5050591;28;20079;-53
2022/06/18 04:27:37;;;;;;;8.43;3.50;;;19.90;88.20;;;;;;5045713;28;20660;-51
2022/06/18 04:30:21;;;;;;;6.90;5.28;;;19.90;87.10;;;;;;5051744;28;20052;-51
2022/06/18 04:33:06;;;;;;;7.68;3.70;;;19.90;85.90;;;;;;5051817;28;20102;-52
2022/06/18 04:35:54;;;;;;;6.38;3.40;;;19.90;84.70;;;;;;5036414;28;20039;-48
2022/06/18 04:38:38;;;;;;;4.22;3.38;;;19.90;84.70;;;;;;5052013;28;20083;-55
2022/06/18 04:41:22;;;;;;;5.00;3.30;;;19.90;84.50;;;;;;5051880;28;20112;-53
2022/06/18 04:44:06;;;;;;;6.43;3.25;;;19.80;84.30;;;;;;5051786;28;20044;-53
2022/06/18 04:46:50;;;;;;;15.07;4.00;;;19.80;84.20;;;;;;5052049;28;20048;-52
2022/06/18 04:49:34;;;;;;;10.88;6.28;;;19.90;83.60;;;;;;5051871;28;20405;-52
2022/06/18 04:52:18;;;;;;;6.30;4.70;;;19.90;83.90;;;;;;5051366;28;20120;-51
2022/06/18 04:55:02;;;;;;;6.28;3.50;;;20.10;83.50;;;;;;5052159;28;20087;-46
2022/06/18 04:57:47;;;;;;;4.53;2.92;;;20.20;82.70;;;;;;5052116;28;20036;-52
2022/06/18 05:00:33;;;;;;;;;;;20.20;81.70;;;;;;5052502;28;20040;-53
2022/06/18 05:03:21;;;;;;;3.92;2.97;;;20.20;82.00;;;;;;5052232;28;19959;-50
2022/06/18 05:06:05;;;;;;;3.67;3.00;;;20.20;80.30;;;;;;5035959;28;20162;-50
2022/06/18 05:08:49;;;;;;;3.75;3.00;;;20.20;79.60;;;;;;5051611;28;20071;-49
2022/06/18 05:11:34;;;;;;;6.95;2.78;;;20.30;79.00;;;;;;5051545;28;20120;-51
2022/06/18 05:14:17;;;;;;;4.55;3.13;;;20.30;79.00;;;;;;5052623;28;20420;-55
2022/06/18 05:17:05;;;;;;;11.50;3.15;;;20.40;78.60;;;;;;5035073;28;20135;-51
2022/06/18 05:19:50;;;;;;;6.60;3.30;;;20.40;78.30;;;;;;5050687;28;20098;-52
2022/06/18 05:22:34;;;;;;;4.20;3.20;;;20.40;78.40;;;;;;5031413;28;20516;-52
2022/06/18 05:25:19;;;;;;;5.63;3.00;;;20.50;78.00;;;;;;5031370;28;20052;-51
2022/06/18 05:28:04;;;;;;;6.75;3.17;;;20.50;78.40;;;;;;5050926;28;20090;-50
2022/06/18 05:30:48;;;;;;;6.82;3.10;;;20.70;77.70;;;;;;5051346;28;20091;-50
2022/06/18 05:33:32;;;;;;;6.57;3.05;;;20.70;77.40;;;;;;5050844;28;20087;-56
2022/06/18 05:36:19;;;;;;;7.57;2.90;;;20.80;76.50;;;;;;5040451;28;20079;-53
2022/06/18 05:39:05;;;;;;;8.52;3.17;;;21.00;76.70;;;;;;5050831;28;20035;-53
2022/06/18 05:41:49;;;;;;;5.20;3.03;;;21.10;76.00;;;;;;5051909;28;20499;-51
2022/06/18 05:44:34;;;;;;;5.10;2.88;;;21.10;75.40;;;;;;5035856;28;20028;-54
2022/06/18 05:47:23;;;;;;;9.75;3.33;;;21.20;75.80;;;;;;5053304;28;20048;-51
2022/06/18 05:50:12;;;;;;;5.25;3.08;;;21.30;75.20;;;;;;5054769;28;20066;-52
2022/06/18 05:52:56;;;;;;;4.72;3.10;;;21.40;75.10;;;;;;5055138;28;20040;-51
2022/06/18 05:55:40;;;;;;;5.97;3.00;;;21.50;74.90;;;;;;5034984;28;20041;-52
2022/06/18 05:58:25;;;;;;;5.07;3.05;;;21.60;74.50;;;;;;5038924;28;20068;-52
2022/06/18 06:01:09;;;;;;;4.40;3.05;;;21.60;74.80;;;;;;5056036;28;20040;-53
2022/06/18 06:03:53;;;;;;;;;;;21.70;75.30;;;;;;5040699;28;20515;-53
2022/06/18 06:06:37;;;;;;;3.80;2.72;;;21.80;75.10;;;;;;5054796;28;19919;-52
2022/06/18 06:12:25;;;;;;;3.15;2.65;;;21.90;74.80;;;;;;5054688;28;20091;-51
2022/06/18 06:15:10;;;;;;;;;;;22.00;74.80;;;;;;5054387;28;20036;-53
2022/06/18 06:17:54;;;;;;;4.00;3.00;;;22.20;74.00;;;;;;5039780;28;19935;-53
2022/06/18 06:20:41;;;;;;;4.95;3.30;;;22.30;74.50;;;;;;5039077;28;20646;-55
2022/06/18 06:23:26;;;;;;;4.22;2.90;;;22.40;74.00;;;;;;5054915;28;20444;-50
2022/06/18 06:26:21;;;;;;;;;;;22.60;73.90;;;;;;5054679;28;20150;-54
2022/06/18 06:29:05;;;;;;;;;;;22.80;73.00;;;;;;5054402;28;19959;-54
2022/06/18 06:31:50;;;;;;;4.43;2.97;;;22.90;73.50;;;;;;5054644;28;20000;-48
2022/06/18 06:34:34;;;;;;;4.13;2.70;;;23.10;72.70;;;;;;5055780;28;20083;-56
2022/06/18 06:37:18;;;;;;;3.53;2.72;;;23.30;72.30;;;;;;5054695;28;20040;-54
2022/06/18 06:40:03;;;;;;;4.38;2.67;;;23.40;71.00;;;;;;5054247;28;20051;-50
2022/06/18 06:42:53;;;;;;;3.42;2.75;;;23.40;70.60;;;;;;5054028;28;20035;-52
2022/06/18 06:45:38;;;;;;;10.60;3.10;;;23.60;70.50;;;;;;5053454;28;20082;-54
2022/06/18 06:48:22;;;;;;;;;;;23.60;68.40;;;;;;5039390;28;20039;-49
2022/06/18 06:51:27;;;;;;;9.90;3.30;;;23.70;68.90;;;;;;5054472;28;19963;-55
2022/06/18 06:54:11;;;;;;;4.53;2.80;;;23.80;66.40;;;;;;5054288;28;20182;-49
2022/06/18 06:59:58;;;;;;;6.70;3.13;;;24.00;67.90;;;;;;5034910;28;20479;-54
2022/06/18 07:02:43;;;;;;;4.70;2.70;;;24.10;65.90;;;;;;5051958;28;20424;-56
2022/06/18 07:05:27;;;;;;;4.75;2.80;;;24.20;66.40;;;;;;5038251;28;20455;-54
2022/06/18 07:08:12;;;;;;;3.90;2.78;;;24.30;66.10;;;;;;5054955;28;20104;-53
2022/06/18 07:10:57;;;;;;;5.13;2.95;;;24.40;66.00;;;;;;5042372;28;20132;-56
2022/06/18 07:13:42;;;;;;;6.25;2.92;;;24.50;66.40;;;;;;5053007;28;20036;-53
2022/06/18 07:16:26;;;;;;;5.53;2.83;;;24.70;66.00;;;;;;5052793;28;20029;-49
2022/06/18 07:19:10;;;;;;;3.45;3.08;;;24.80;65.40;;;;;;5052593;28;20118;-53
2022/06/18 07:21:54;;;;;;;4.38;2.78;;;24.90;64.90;;;;;;5052985;28;20067;-52
2022/06/18 07:24:38;;;;;;;4.28;2.67;;;25.00;65.40;;;;;;5053178;28;20074;-49
2022/06/18 07:27:23;;;;;;;7.57;3.75;;;25.10;65.60;;;;;;5049433;28;20076;-54
2022/06/18 07:30:09;;;;;;;6.22;2.85;;;25.20;64.50;;;;;;5053299;28;20036;-57
2022/06/18 07:32:53;;;;;;;6.95;3.10;;;25.20;64.80;;;;;;5053237;28;20036;-51
2022/06/18 07:35:38;;;;;;;6.28;3.28;;;25.20;64.30;;;;;;5052437;28;20036;-55
2022/06/18 07:38:23;;;;;;;6.78;3.10;;;25.40;64.30;;;;;;5053273;28;20170;-54
2022/06/18 07:41:07;;;;;;;6.57;2.90;;;25.40;63.60;;;;;;5053436;28;20127;-54
2022/06/18 07:43:55;;;;;;;4.43;2.88;;;25.40;63.00;;;;;;5054235;28;20079;-51
2022/06/18 07:46:39;;;;;;;36.97;5.10;;;25.50;62.70;;;;;;5053559;28;20040;-53
2022/06/18 07:49:24;;;;;;;7.10;2.83;;;25.50;62.30;;;;;;5053914;28;20039;-49
2022/06/18 07:52:10;;;;;;;4.20;3.00;;;25.60;62.30;;;;;;5053297;28;20151;-52
2022/06/18 07:54:54;;;;;;;6.38;3.30;;;25.60;62.50;;;;;;5053748;28;20566;-54
2022/06/18 07:57:38;;;;;;;5.70;3.75;;;25.70;62.50;;;;;;5052938;28;20040;-52
2022/06/18 08:00:23;;;;;;;4.32;2.90;;;25.80;62.50;;;;;;5052826;28;20043;-53
2022/06/18 08:03:09;;;;;;;8.45;3.35;;;26.00;62.80;;;;;;5053581;28;20393;-55
2022/06/18 08:05:54;;;;;;;4.80;3.20;;;26.10;62.40;;;;;;5050917;28;20503;-51
2022/06/18 08:08:38;;;;;;;9.20;3.05;;;26.20;61.90;;;;;;5036533;28;20635;-49
2022/06/18 08:11:25;;;;;;;4.15;3.15;;;26.10;62.10;;;;;;5052868;28;20044;-48
2022/06/18 08:14:10;;;;;;;6.18;3.05;;;26.30;62.60;;;;;;5052297;28;20138;-55
2022/06/18 08:16:54;;;;;;;3.65;2.92;;;26.30;61.70;;;;;;5052451;28;20155;-51
2022/06/18 08:19:38;;;;;;;3.50;2.70;;;26.20;63.10;;;;;;5052454;28;20044;-49
2022/06/18 08:22:24;;;;;;;11.80;2.80;;;26.50;61.90;;;;;;5052336;28;20576;-54
2022/06/18 08:25:10;;;;;;;7.70;3.08;;;26.50;62.10;;;;;;5051950;28;20064;-53
2022/06/18 08:27:57;;;;;;;7.88;3.22;;;26.60;62.40;;;;;;5051328;28;20550;-55
2022/06/18 08:30:41;;;;;;;4.75;2.70;;;26.80;62.60;;;;;;5051835;28;20039;-56
2022/06/18 08:33:28;;;;;;;5.30;2.90;;;26.90;62.30;;;;;;5052362;28;20066;-53
2022/06/18 08:36:15;;;;;;;3.30;2.72;;;27.00;62.60;;;;;;5045341;28;20036;-54
2022/06/18 08:39:00;;;;;;;5.50;3.10;;;27.00;61.50;;;;;;5050932;28;20040;-53
2022/06/18 08:41:57;;;;;;;5.65;3.08;;;27.00;61.60;;;;;;5035099;28;20063;-55
2022/06/18 08:44:50;;;;;;;4.28;2.85;;;27.20;61.70;;;;;;5039568;28;20055;-52
2022/06/18 08:48:03;;;;;;;4.43;3.13;;;27.30;61.30;;;;;;5050935;28;20072;-57
2022/06/18 08:51:17;;;;;;;5.85;3.08;;;27.30;62.00;;;;;;5050701;28;20032;-54
2022/06/18 08:54:40;;;;;;;4.40;3.17;;;27.40;62.00;;;;;;5050242;28;20075;-52
2022/06/18 08:57:30;;;;;;;10.15;3.55;;;27.60;62.50;;;;;;5050523;28;20500;-56
2022/06/18 09:00:27;;;;;;;5.25;3.20;;;27.70;62.20;;;;;;5051787;28;20416;-53
2022/06/18 09:03:51;;;;;;;9.52;2.85;;;27.50;62.50;;;;;;5051411;28;20043;-50
2022/06/18 09:06:47;;;;;;;5.03;3.38;;;27.80;62.60;;;;;;5004910;28;20063;-55
2022/06/18 09:10:13;;;;;;;6.75;3.08;;;27.90;62.90;;;;;;5031517;28;20083;-56
2022/06/18 09:13:04;;;;;;;5.38;3.47;;;28.00;62.00;;;;;;5045777;28;20722;-53
2022/06/18 09:15:53;;;;;;;7.03;3.40;;;28.00;62.90;;;;;;5050787;28;20032;-48
2022/06/18 09:21:55;;;;;;;8.18;3.70;;;28.10;62.60;;;;;;5067885;28;20398;-54
2022/06/18 09:24:42;;;;;;;5.88;3.70;;;28.00;62.60;;;;;;5053148;28;20254;-53
2022/06/18 09:27:36;;;;;;;6.05;3.58;;;28.20;62.60;;;;;;5062437;28;20036;-55
2022/06/18 09:30:39;;;;;;;9.02;3.60;;;28.30;62.40;;;;;;5064704;28;20594;-54
2022/06/18 09:33:49;;;;;;;10.38;3.88;;;28.40;62.50;;;;;;5069528;28;20561;-56
2022/06/18 09:36:40;;;;;;;5.93;3.80;;;28.40;62.50;;;;;;5060595;28;20032;-50
2022/06/18 09:39:33;;;;;;;6.32;3.78;;;28.60;62.60;;;;;;5069583;28;20062;-54
2022/06/18 09:42:27;;;;;;;5.53;4.20;;;28.60;62.40;;;;;;5069254;28;20047;-51
2022/06/18 09:45:22;;;;;;;10.20;4.40;;;28.90;61.90;;;;;;5068079;28;20031;-54
2022/06/18 09:48:07;;;;;;;7.97;3.80;;;28.90;62.00;;;;;;5067971;28;20400;-55
2022/06/18 09:51:08;;;;;;;8.20;3.92;;;29.00;61.60;;;;;;5067944;28;20047;-52
2022/06/18 09:53:56;;;;;;;5.38;3.95;;;29.00;61.30;;;;;;5068032;28;20035;-51
2022/06/18 09:56:45;;;;;;;8.73;4.90;;;29.10;61.40;;;;;;5067074;28;20044;-51
2022/06/18 09:59:31;;;;;;;7.40;3.60;;;29.10;61.00;;;;;;5067881;28;20063;-49
2022/06/18 10:02:21;;;;;;;7.60;3.90;;;29.00;60.70;;;;;;5068056;28;20039;-52
2022/06/18 10:08:24;;;;;;;9.77;3.85;;;28.90;61.50;;;;;;5068072;28;20032;-49
2022/06/18 10:11:13;;;;;;;12.45;4.30;;;29.00;61.40;;;;;;5069159;28;20123;-49
2022/06/18 10:14:21;;;;;;;7.32;4.00;;;29.20;60.90;;;;;;5068125;28;20051;-50
2022/06/18 10:17:40;;;;;;;12.98;4.43;;;29.30;60.90;;;;;;5067603;28;20075;-52
2022/06/18 10:20:39;;;;;;;10.32;4.03;;;29.30;61.20;;;;;;5067375;28;20051;-53
2022/06/18 10:23:57;;;;;;;9.63;4.18;;;29.40;60.80;;;;;;5066575;28;20112;-50
2022/06/18 10:26:47;;;;;;;8.57;4.18;;;29.40;60.40;;;;;;5066704;28;20616;-53
2022/06/18 10:29:35;;;;;;;8.57;4.28;;;29.50;60.60;;;;;;5066996;28;20036;-50
2022/06/18 10:32:22;;;;;;;13.13;4.35;;;29.70;60.00;;;;;;5057403;28;20063;-47
2022/06/18 10:35:38;;;;;;;6.38;3.80;;;29.60;60.50;;;;;;5034588;28;20466;-56
2022/06/18 10:38:31;;;;;;;7.90;4.07;;;29.70;60.00;;;;;;5044234;28;20160;-53
2022/06/18 10:41:16;;;;;;;12.20;4.70;;;29.70;59.70;;;;;;5053806;28;20067;-49
2022/06/18 10:44:12;;;;;;;;;;;29.70;59.90;;;;;;5055006;28;20040;-48
2022/06/18 10:47:03;;;;;;;8.13;4.00;;;29.80;60.10;;;;;;5053806;28;19919;-53
2022/06/18 10:50:00;;;;;;;6.40;3.92;;;29.90;60.10;;;;;;5053869;28;20518;-52
2022/06/18 10:52:55;;;;;;;9.02;4.38;;;30.00;59.40;;;;;;5035726;28;20037;-53
2022/06/18 10:55:40;;;;;;;8.48;3.92;;;30.20;59.20;;;;;;5033132;28;20056;-52
2022/06/18 10:58:25;;;;;;;13.27;4.68;;;30.10;59.00;;;;;;5038279;28;20032;-54
2022/06/18 11:01:14;;;;;;;9.02;4.10;;;30.10;59.00;;;;;;5045484;28;20087;-55
2022/06/18 11:04:18;;;;;;;7.00;3.80;;;30.30;58.80;;;;;;5034867;28;20495;-50
2022/06/18 11:07:07;;;;;;;7.00;3.72;;;30.60;58.90;;;;;;5053273;28;20047;-51
2022/06/18 11:10:02;;;;;;;6.63;3.95;;;30.60;58.60;;;;;;5053048;28;20698;-49
2022/06/18 11:12:54;;;;;;;10.60;4.22;;;30.70;59.10;;;;;;5052894;28;20478;-49
2022/06/18 11:15:38;;;;;;;9.07;3.85;;;30.70;58.90;;;;;;5052288;28;20071;-49
2022/06/18 11:18:23;;;;;;;8.43;4.80;;;30.70;59.50;;;;;;5053375;28;20120;-50
2022/06/18 11:21:17;;;;;;;10.48;4.38;;;30.80;59.20;;;;;;5052819;28;20091;-48
2022/06/18 11:24:10;;;;;;;8.05;4.53;;;30.80;57.70;;;;;;5054783;28;20028;-51
2022/06/18 11:27:02;;;;;;;13.18;4.40;;;30.80;57.60;;;;;;5046182;28;20103;-51
2022/06/18 11:29:53;;;;;;;10.27;4.82;;;30.90;57.40;;;;;;5053865;28;20036;-53
2022/06/18 11:32:44;;;;;;;15.13;5.10;;;31.00;57.20;;;;;;5053413;28;20055;-52
2022/06/18 11:35:35;;;;;;;12.88;4.88;;;31.10;56.80;;;;;;5053421;28;20388;-51
2022/06/18 11:38:32;;;;;;;9.05;4.25;;;31.10;57.00;;;;;;5053819;28;20722;-49
2022/06/18 11:41:28;;;;;;;11.38;4.60;;;31.10;56.80;;;;;;5052544;28;20099;-52
2022/06/18 11:44:48;;;;;;;16.23;5.18;;;31.00;57.20;;;;;;5051516;28;20044;-54
2022/06/18 11:47:41;;;;;;;9.23;4.93;;;31.00;57.20;;;;;;5053134;28;20511;-51
2022/06/18 11:50:28;;;;;;;7.78;4.38;;;31.20;56.80;;;;;;5052738;28;20043;-53
2022/06/18 11:53:56;;;;;;;11.73;4.93;;;31.20;57.40;;;;;;5052732;28;20086;-48
2022/06/18 11:57:00;;;;;;;10.13;4.63;;;31.20;57.20;;;;;;5032045;28;20036;-49
2022/06/18 11:59:53;;;;;;;10.50;4.63;;;31.30;56.70;;;;;;5040257;28;20403;-51
2022/06/18 12:03:01;;;;;;;10.40;4.35;;;31.40;56.60;;;;;;5052804;28;20033;-51
2022/06/18 12:05:50;;;;;;;11.40;4.93;;;31.50;56.80;;;;;;5051972;28;20036;-52
2022/06/18 12:08:34;;;;;;;15.40;5.10;;;31.60;56.10;;;;;;5052330;28;20425;-54
2022/06/18 12:11:56;;;;;;;9.27;4.38;;;31.60;56.50;;;;;;5052119;28;20090;-50
2022/06/18 12:14:59;;;;;;;10.90;4.72;;;31.50;57.40;;;;;;5052039;28;20396;-52
2022/06/18 12:18:15;;;;;;;12.30;4.72;;;31.70;56.40;;;;;;5050853;28;20172;-52
2022/06/18 12:21:18;;;;;;;8.48;4.68;;;31.80;56.80;;;;;;5030798;28;20048;-52
2022/06/18 12:24:11;;;;;;;8.20;4.53;;;31.80;56.60;;;;;;5050273;28;20055;-52
2022/06/18 12:27:21;;;;;;;10.20;4.43;;;32.00;56.60;;;;;;5044437;28;20032;-54
2022/06/18 12:30:16;;;;;;;9.02;4.95;;;32.30;56.10;;;;;;5051326;28;20082;-51
2022/06/18 12:33:15;;;;;;;11.38;5.13;;;32.30;55.60;;;;;;5051327;28;20507;-57
2022/06/18 12:36:11;;;;;;;10.75;5.43;;;32.40;55.70;;;;;;5051387;28;20079;-54
2022/06/18 12:39:07;;;;;;;12.80;5.32;;;32.40;55.70;;;;;;5051229;28;20032;-49
2022/06/18 12:42:04;;;;;;;13.07;4.57;;;32.70;55.60;;;;;;5033279;28;20059;-50
2022/06/18 12:45:27;;;;;;;16.13;5.88;;;32.80;55.70;;;;;;5043111;28;20329;-55
2022/06/18 12:48:20;;;;;;;12.65;5.22;;;32.90;54.60;;;;;;5031539;28;20539;-52
2022/06/18 12:51:10;;;;;;;13.50;4.87;;;32.80;54.60;;;;;;5040648;28;20507;-53
2022/06/18 12:54:09;;;;;;;11.52;4.60;;;32.90;54.70;;;;;;5032189;28;20048;-53
2022/06/18 12:57:05;;;;;;;11.43;4.85;;;32.80;55.00;;;;;;5037240;28;20035;-52
2022/06/18 13:00:03;;;;;;;10.38;4.50;;;32.80;55.60;;;;;;5051912;28;20630;-52
2022/06/18 13:02:57;;;;;;;11.63;4.75;;;32.90;55.20;;;;;;5052314;28;20083;-52
2022/06/18 13:05:51;;;;;;;7.93;4.43;;;33.00;54.60;;;;;;5051043;28;20395;-51
2022/06/18 13:08:45;;;;;;;11.13;5.20;;;33.10;55.00;;;;;;5052346;28;20036;-51
2022/06/18 13:11:32;;;;;;;13.15;5.22;;;33.10;54.10;;;;;;5051789;28;20033;-54
2022/06/18 13:14:46;;;;;;;9.00;5.10;;;33.40;53.20;;;;;;5051891;28;20059;-55
2022/06/18 13:17:42;;;;;;;15.82;5.57;;;33.70;53.40;;;;;;5050801;28;20028;-54
2022/06/18 13:20:37;;;;;;;11.65;5.15;;;33.70;53.10;;;;;;5051616;28;20032;-50
2022/06/18 13:29:46;;;;;;;11.32;4.80;;;33.40;55.30;;;;;;5046593;28;20040;-50
2022/06/18 13:32:37;;;;;;;13.35;5.20;;;33.50;54.90;;;;;;5050655;28;20564;-50
2022/06/18 13:35:48;;;;;;;16.88;5.85;;;33.80;54.70;;;;;;5033079;28;20036;-53
2022/06/18 13:38:47;;;;;;;13.98;5.53;;;33.90;52.40;;;;;;5051494;28;20113;-48
2022/06/18 13:41:35;;;;;;;14.63;5.20;;;33.90;51.60;;;;;;5050532;28;20497;-48
2022/06/18 13:44:44;;;;;;;17.02;5.78;;;34.10;51.20;;;;;;5051498;28;20079;-52
2022/06/18 13:47:39;;;;;;;15.18;5.00;;;34.20;50.70;;;;;;5031412;28;20453;-48
2022/06/18 13:50:46;;;;;;;14.70;5.43;;;34.20;51.10;;;;;;5036770;28;20036;-48
2022/06/18 13:53:37;;;;;;;14.95;5.65;;;34.30;51.10;;;;;;5050932;28;20164;-50
2022/06/18 13:56:23;;;;;;;15.07;5.85;;;34.50;51.00;;;;;;5050754;28;20116;-50
2022/06/18 13:59:18;;;;;;;17.45;6.53;;;34.50;50.50;;;;;;5053489;28;20043;-52
2022/06/18 14:02:31;;;;;;;13.15;5.93;;;34.50;50.50;;;;;;5052508;28;20059;-54
2022/06/18 14:05:21;;;;;;;16.47;5.83;;;34.60;50.60;;;;;;5031152;28;20597;-50
2022/06/18 14:08:18;;;;;;;20.88;5.90;;;34.80;50.60;;;;;;5038353;28;20028;-51
2022/06/18 14:11:05;;;;;;;20.50;5.90;;;34.90;50.20;;;;;;5054339;28;20438;-52
2022/06/18 14:13:52;;;;;;;16.70;5.65;;;34.80;50.10;;;;;;5053926;28;20044;-54
2022/06/18 14:16:36;;;;;;;14.48;5.75;;;35.10;49.70;;;;;;5053739;28;20031;-54
2022/06/18 14:19:20;;;;;;;16.55;5.50;;;35.30;49.40;;;;;;5034067;28;20040;-53
2022/06/18 14:22:16;;;;;;;20.15;6.05;;;35.40;49.80;;;;;;5038901;28;20052;-50
2022/06/18 14:25:03;;;;;;;16.25;5.78;;;35.30;49.00;;;;;;5053382;28;20063;-52
2022/06/18 14:27:48;;;;;;;20.17;6.80;;;35.10;49.40;;;;;;5050809;28;20090;-52
2022/06/18 14:30:48;;;;;;;15.35;5.82;;;35.00;49.00;;;;;;5054152;28;20079;-51
2022/06/18 14:33:37;;;;;;;13.13;5.95;;;35.10;49.10;;;;;;5054740;28;20052;-50
2022/06/18 14:36:29;;;;;;;16.85;5.47;;;35.10;49.80;;;;;;5055351;28;20092;-58
2022/06/18 14:39:27;;;;;;;17.77;5.78;;;35.10;48.90;;;;;;5055911;28;20051;-51
2022/06/18 14:42:39;;;;;;;13.20;6.32;;;35.00;48.40;;;;;;5054210;28;20027;-56
2022/06/18 14:45:32;;;;;;;14.27;5.90;;;35.00;48.70;;;;;;5039818;28;20028;-54
2022/06/18 14:48:46;;;;;;;11.90;5.30;;;35.20;48.70;;;;;;5053090;28;20162;-49
2022/06/18 14:51:59;;;;;;;14.77;6.20;;;35.40;49.10;;;;;;5045659;28;20033;-51
2022/06/18 14:55:08;;;;;;;12.85;6.05;;;35.60;48.70;;;;;;5034299;28;20033;-54
2022/06/18 14:58:14;;;;;;;21.95;7.82;;;36.00;48.20;;;;;;5033878;28;20075;-51
2022/06/18 15:01:57;;;;;;;17.42;6.07;;;36.00;47.70;;;;;;5042941;28;20677;-50
2022/06/18 15:05:19;;;;;;;12.32;6.00;;;35.80;47.30;;;;;;5044562;28;20040;-56
2022/06/18 15:08:17;;;;;;;21.10;5.85;;;35.70;47.90;;;;;;5033982;28;20147;-54
2022/06/18 15:11:05;;;;;;;21.35;6.50;;;35.60;47.60;;;;;;5042268;28;20389;-53
2022/06/18 15:13:51;;;;;;;17.50;5.38;;;35.80;47.40;;;;;;5053203;28;20040;-50
2022/06/18 15:16:56;;;;;;;20.45;5.68;;;35.80;47.90;;;;;;5017976;28;20068;-54